Latest Coastal Weather Observations for Groote Eylandt Airport

IDD60701

Issued at 2:01 pm CST Tuesday 26 July 2016 (issued every 10 minutes, with the page automatically refreshed every 10 minutes)

About coastal observations | Map of coastal stations | Coastal observations for NT | Marine services | Other Formats
Station Details ID: 014518 Name: GROOTE EYLANDT AIRPORT Lat: -13.97 Lon: 136.46 Height: 13.7 m
Data from the previous 72 hours. | See also: Recent months at Groote Eylandt Airport
Date/Time
CST
Temp
°C
Wind Pressure Rain since
9am
mm
Weather Cloud Vis
km
Sea
Height
m
Swell
Dir  Spd
kts
Gust
kts
hPa Trend Height
m
Period
s
Dir
26/02:00pm 29.3 SE 7 11 1012.6 - 0.0 - Partly cloudy 10 - - - -
26/01:30pm 30.2 ESE 6 11 1012.8 - 0.0 - - 10 - - - -
26/01:00pm 29.4 SE 7 13 1013.2 - 0.0 - - 10 - - - -
26/12:30pm 29.0 ESE 9 16 1013.7 - 0.0 - - 10 - - - -
26/12:00pm 29.0 SE 8 14 1014.2 - 0.0 - - 10 - - - -
26/11:30am 28.3 ESE 9 15 1014.7 - 0.0 - - 10 - - - -
26/11:00am 27.6 ESE 10 17 1015.1 - 0.0 - Partly cloudy 10 - - - -
26/10:30am 27.2 ESE 8 14 1015.2 - 0.0 - Partly cloudy 10 - - - -
26/10:00am 27.5 E 12 18 1015.1 - 0.0 - Partly cloudy 10 - - - -
26/09:30am 26.9 SE 7 12 1015.2 - 0.0 - - 10 - - - -
26/09:00am 26.0 SE 6 9 1015.2 - 0.0 - - 10 - - - -
26/08:30am 25.0 ESE 7 15 1014.9 - 0.0 - - 10 - - - -
26/08:00am 24.1 ESE 5 9 1014.8 - 0.0 - - 10 - - - -
26/07:30am 22.9 SE 3 6 1014.4 - 0.0 - - 10 - - - -
26/07:00am 22.1 SE 4 7 1014.0 - 0.0 - - 10 - - - -
26/06:30am 22.2 SE 5 7 1013.7 - 0.0 - - 10 - - - -
26/06:00am 21.9 SE 5 7 1013.4 - 0.0 - - - - - - -
26/05:30am 20.9 SE 4 7 1013.2 - 0.0 - - - - - - -
26/05:00am 20.8 ESE 3 5 1012.9 - 0.0 - - - - - - -
26/04:30am 20.9 ESE 4 6 1012.7 - 0.0 - - - - - - -
26/04:00am 21.2 E 4 5 1012.6 - 0.0 - - - - - - -
26/03:30am 21.4 ESE 3 4 1012.6 - 0.0 - - - - - - -
26/03:00am 21.7 ESE 4 6 1012.7 - 0.0 - - 10 - - - -
26/02:30am 21.9 ESE 4 7 1012.9 - 0.0 - - 10 - - - -
26/02:00am 22.0 ESE 4 6 1013.1 - 0.0 - - 10 - - - -
26/01:30am 21.7 ESE 4 6 1013.4 - 0.0 - - 10 - - - -
26/01:00am 21.6 ESE 4 5 1013.6 - 0.0 - - 10 - - - -
26/12:30am 21.7 ESE 4 5 1013.7 - 0.0 - - 10 - - - -
26/12:00am 21.8 ESE 5 7 1013.9 - 0.0 - - 10 - - - -
 
Date/Time
CST
Temp
°C
Wind Pressure Rain since
9am
mm
Weather Cloud Vis
km
Sea
Height
m
Swell
Dir  Spd
kts
Gust
kts
hPa Trend Height
m
Period
s
Dir
25/11:30pm 21.7 ESE 4 5 1013.8 - 0.0 - - 10 - - - -
25/11:00pm 21.9 ESE 5 7 1013.7 - 0.0 - - 10 - - - -
25/10:30pm 22.0 ESE 5 7 1013.9 - 0.0 - - 10 - - - -
25/10:00pm 22.2 ESE 5 7 1014.0 - 0.0 - - 10 - - - -
25/09:30pm 22.4 ESE 4 6 1014.0 - 0.0 - - 10 - - - -
25/09:00pm 22.6 SE 4 6 1013.9 - 0.0 - - 10 - - - -
25/08:30pm 23.0 SE 4 7 1013.8 - 0.0 - - 10 - - - -
25/08:00pm 23.5 SE 5 7 1013.4 - 0.0 - - 10 - - - -
25/07:30pm 23.9 SE 6 9 1013.2 - 0.0 - - 10 - - - -
25/07:00pm 24.5 ESE 5 8 1012.8 - 0.0 - - 10 - - - -
25/06:30pm 25.2 SE 6 9 1012.6 - 0.0 - - 10 - - - -
25/06:00pm 26.2 SE 7 11 1012.2 - 0.0 - - 10 - - - -
25/05:30pm 27.6 SE 7 13 1011.8 - 0.0 - - 10 - - - -
25/05:00pm 28.6 ESE 10 16 1011.7 - 0.0 - - 10 - - - -
25/04:30pm 28.4 ESE 11 16 1011.6 - 0.0 - - 10 - - - -
25/04:00pm 29.0 SE 8 13 1011.7 - 0.0 - - 10 - - - -
25/03:30pm 29.1 ESE 10 16 1011.8 - 0.0 - - 10 - - - -
25/03:00pm 29.3 E 13 21 1011.9 - 0.0 - - 10 - - - -
25/02:30pm 29.1 ESE 13 19 1012.0 - 0.0 - - 10 - - - -
25/02:00pm 29.4 SE 10 16 1012.4 - 0.0 - Partly cloudy 10 - - - -
25/01:30pm 28.3 ESE 10 15 1013.1 - 0.0 - Partly cloudy - - - - -
25/01:00pm 28.8 ESE 10 19 1013.6 - 0.0 - Partly cloudy 10 - - - -
25/12:30pm 29.5 ESE 12 20 1013.7 - 0.0 - Partly cloudy 10 - - - -
25/12:00pm 29.7 ESE 11 19 1013.8 - 0.0 - - 10 - - - -
25/11:30am 29.0 ESE 12 18 1014.2 - 0.0 - Partly cloudy 10 - - - -
25/11:00am 28.5 SE 10 17 1014.5 - 0.0 - Partly cloudy 10 - - - -
25/10:30am 28.0 SSE 9 18 1014.6 - 0.0 - Partly cloudy 10 - - - -
25/10:00am 27.6 SE 9 16 1014.5 - 0.0 - - 10 - - - -
25/09:30am 26.4 SSE 9 14 1014.6 - 0.0 - Partly cloudy 10 - - - -
25/09:00am 25.8 SSE 6 11 1014.5 - 0.2 - Partly cloudy 10 - - - -
25/08:30am 24.5 SSE 4 7 1014.2 - 0.2 - - 10 - - - -
25/08:00am 22.1 SE 3 5 1014.0 - 0.2 - - 10 - - - -
25/07:30am 17.6 CALM 0 0 1013.7 - 0.2 - - - - - - -
25/07:22am 17.1 CALM 0 0 1013.6 - 0.2 - Partly cloudy - - - - -
25/07:00am 16.5 CALM 0 0 1013.4 - 0.2 - Partly cloudy - - - - -
25/06:30am 16.1 CALM 0 3 1013.1 - 0.2 - Partly cloudy - - - - -
25/06:12am 16.1 CALM 0 0 1012.8 - 0.2 - Partly cloudy - - - - -
25/06:00am 16.0 CALM 0 0 1012.7 - 0.2 - Mostly clear - - - - -
25/05:30am 16.1 CALM 0 0 1012.4 - 0.2 - - - - - - -
25/05:00am 16.4 CALM 0 0 1012.1 - 0.2 - - 10 - - - -
25/04:30am 16.2 ESE 1 3 1012.1 - 0.2 - - 10 - - - -
25/04:00am 16.4 CALM 0 0 1012.0 - 0.2 - - 10 - - - -
25/03:30am 16.8 CALM 0 0 1012.2 - 0.2 - - 10 - - - -
25/03:15am 16.7 CALM 0 0 1012.3 - 0.2 - Partly cloudy 10 - - - -
25/03:00am 16.5 ESE 2 4 1012.3 - 0.2 Recent precip. Partly cloudy 10 - - - -
25/02:59am 16.5 ESE 2 4 1012.3 - 0.2 - Partly cloudy 10 - - - -
25/02:30am 17.0 CALM 0 0 1012.3 - 0.2 - Cloudy 2 - - - -
25/02:00am 17.5 ESE 4 5 1012.7 - 0.2 - Cloudy 0.5 - - - -
25/01:45am 17.6 CALM 0 4 1012.8 - 0.2 - Partly cloudy 5 - - - -
25/01:35am 18.0 CALM 0 0 1012.9 - 0.2 - Partly cloudy 10 - - - -
25/01:30am 17.9 CALM 0 0 1013.1 - 0.2 - Partly cloudy 10 - - - -
25/01:00am 18.5 CALM 0 0 1013.2 - 0.2 - - 10 - - - -
25/12:30am 18.3 CALM 0 0 1013.2 - 0.2 - - 10 - - - -
25/12:00am 18.6 SSE 2 6 1013.1 - 0.2 - - 10 - - - -
 
Date/Time
CST
Temp
°C
Wind Pressure Rain since
9am
mm
Weather Cloud Vis
km
Sea
Height
m
Swell
Dir  Spd
kts
Gust
kts
hPa Trend Height
m
Period
s
Dir
24/11:30pm 18.5 ENE 1 3 1012.9 - 0.2 - - 10 - - - -
24/11:00pm 19.2 CALM 0 0 1013.1 - 0.2 - - 10 - - - -
24/10:30pm 19.8 CALM 0 0 1013.3 - 0.2 - - 10 - - - -
24/10:00pm 19.9 CALM 0 0 1013.4 - 0.2 - - 10 - - - -
24/09:30pm 20.2 E 1 3 1013.6 - 0.2 - - 10 - - - -
24/09:00pm 21.2 E 4 5 1013.5 - 0.2 - - 10 - - - -
24/08:30pm 21.8 CALM 0 0 1013.3 - 0.2 - - 10 - - - -
24/08:00pm 22.3 CALM 0 3 1013.1 - 0.2 - - 10 - - - -
24/07:30pm 24.0 CALM 0 0 1012.6 - 0.2 - - 10 - - - -
24/07:00pm 25.2 SE 3 5 1012.5 - 0.2 - - 10 - - - -
24/06:30pm 26.2 ESE 4 6 1012.3 - 0.2 - - 10 - - - -
24/06:00pm 27.6 ESE 6 9 1012.1 - 0.2 - - 10 - - - -
24/05:30pm 28.5 E 8 12 1012.1 - 0.2 - - 10 - - - -
24/05:00pm 29.1 ESE 8 13 1011.9 - 0.2 - - 10 - - - -
24/04:30pm 29.1 ESE 8 11 1011.7 - 0.2 - - 10 - - - -
24/04:00pm 29.4 E 9 13 1011.7 - 0.2 - - 10 - - - -
24/03:30pm 30.0 E 10 14 1011.7 - 0.2 - - 10 - - - -
24/03:00pm 29.6 ESE 8 15 1011.9 - 0.2 - Partly cloudy 10 - - - -
24/02:30pm 28.9 ESE 9 14 1012.2 - 0.2 - Partly cloudy 10 - - - -
24/02:00pm 29.8 ESE 8 15 1012.6 - 0.2 - Partly cloudy 10 - - - -
24/01:30pm 29.4 SSE 8 13 1013.1 - 0.2 - Partly cloudy 10 - - - -
24/01:00pm 28.5 SE 9 16 1013.5 - 0.2 - Partly cloudy 10 - - - -
24/12:30pm 28.3 SE 8 15 1013.7 - 0.2 - Partly cloudy 10 - - - -
24/12:00pm 27.8 SSE 8 14 1014.0 - 0.2 - Cloudy 10 - - - -
24/11:30am 28.6 SSE 6 10 1014.4 - 0.2 - Partly cloudy 10 - - - -
24/11:00am 28.1 SE 7 11 1014.6 - 0.2 - Partly cloudy 10 - - - -
24/10:30am 27.1 SSE 7 13 1014.7 - 0.0 - Partly cloudy 10 - - - -
24/10:00am 26.3 SSE 7 14 1014.6 - 0.0 - Partly cloudy 10 - - - -
24/09:41am 26.2 SSE 8 13 1014.5 - 0.0 - Partly cloudy 10 - - - -
24/09:30am 26.4 SSE 8 15 1014.4 - 0.0 - Partly cloudy 10 - - - -
24/09:19am 26.3 SE 7 13 1014.2 - 0.0 - Partly cloudy 10 - - - -
24/09:00am 25.3 SE 6 12 1014.2 - 0.0 - Partly cloudy 10 - - - -
24/08:30am 24.3 SSE 6 9 1014.2 - 0.0 - Partly cloudy - - - - -
24/08:00am 23.3 SSE 5 11 1013.9 - 0.0 - Partly cloudy - - - - -
24/07:41am 22.8 ESE 3 4 1013.5 - 0.0 - Partly cloudy - - - - -
24/07:30am 22.6 ESE 3 5 1013.3 - 0.0 - Partly cloudy - - - - -
24/07:00am 22.1 SSE 3 6 1012.9 - 0.0 - Cloudy - - - - -
24/06:30am 21.2 E 1 3 1012.5 - 0.0 - Cloudy - - - - -
24/06:00am 20.5 CALM 0 0 1012.2 - 0.0 - Cloudy - - - - -
24/05:30am 20.5 CALM 0 0 1011.9 - 0.0 - Cloudy - - - - -
24/05:00am 20.1 CALM 0 0 1011.7 - 0.0 - Cloudy 0.1 - - - -
24/04:30am 19.5 CALM 0 0 1011.5 - 0.0 - Cloudy 0.2 - - - -
24/04:00am 19.2 E 3 4 1011.3 - 0.0 - Cloudy 0.9 - - - -
24/03:46am 19.4 E 2 4 1011.3 - 0.0 - Partly cloudy 4 - - - -
24/03:35am 19.4 CALM 0 0 1011.3 - 0.0 - Partly cloudy 10 - - - -
24/03:30am 19.3 CALM 0 0 1011.3 - 0.0 - Partly cloudy 10 - - - -
24/03:00am 19.7 CALM 0 0 1011.3 - 0.0 - - 10 - - - -
24/02:30am 20.1 CALM 0 0 1011.4 - 0.0 - - 10 - - - -
24/02:00am 20.5 CALM 0 0 1011.4 - 0.0 - - 10 - - - -
24/01:30am 20.7 CALM 0 0 1011.6 - 0.0 - - 10 - - - -
24/01:00am 21.0 CALM 0 0 1011.9 - 0.0 - - 10 - - - -
24/12:30am 21.3 CALM 0 0 1012.0 - 0.0 - - 10 - - - -
24/12:00am 21.6 CALM 0 0 1012.2 - 0.0 - - 10 - - - -
 
Date/Time
CST
Temp
°C
Wind Pressure Rain since
9am
mm
Weather Cloud Vis
km
Sea
Height
m
Swell
Dir  Spd
kts
Gust
kts
hPa Trend Height
m
Period
s
Dir
23/11:30pm 22.0 CALM 0 0 1012.2 - 0.0 - - 10 - - - -
23/11:00pm 22.5 CALM 0 0 1012.2 - 0.0 - - 10 - - - -
23/10:30pm 22.8 E 3 3 1012.1 - 0.0 - - 10 - - - -
23/10:00pm 23.2 E 3 4 1012.1 - 0.0 - - 10 - - - -
23/09:30pm 23.3 E 3 3 1012.0 - 0.0 - - 10 - - - -
23/09:00pm 23.9 E 2 3 1011.8 - 0.0 - - 10 - - - -
23/08:30pm 24.4 E 3 3 1011.6 - 0.0 - - 10 - - - -
23/08:00pm 25.2 E 5 7 1011.5 - 0.0 - - 10 - - - -
23/07:30pm 25.5 NE 6 7 1011.3 - 0.0 - - 10 - - - -
23/07:00pm 26.2 ESE 4 6 1011.1 - 0.0 - - 10 - - - -
23/06:30pm 27.0 ESE 5 7 1010.9 - 0.0 - - 10 - - - -
23/06:00pm 28.0 ESE 5 8 1010.7 - 0.0 - - 10 - - - -
23/05:30pm 28.9 ESE 5 7 1010.5 - 0.0 - Partly cloudy 10 - - - -
23/05:00pm 29.4 SE 6 9 1010.3 - 0.0 - Partly cloudy 10 - - - -
23/04:30pm 29.9 ESE 7 9 1010.3 - 0.0 - - 10 - - - -
23/04:00pm 29.8 ESE 7 12 1010.2 - 0.0 - Partly cloudy 10 - - - -
23/03:30pm 29.0 SE 9 13 1010.4 - 0.0 - Partly cloudy 10 - - - -
23/03:00pm 30.1 ESE 10 14 1010.6 - 0.0 - - 10 - - - -
23/02:30pm 29.2 ESE 9 16 1010.9 - 0.0 - Partly cloudy 10 - - - -

Other Formats:

Comma delimited format used in spreadsheet applications
http://www.bom.gov.au/fwo/IDD60701/IDD60701.94153.axf

JavaScript Object Notation format (JSON) in row-major order
http://www.bom.gov.au/fwo/IDD60701/IDD60701.94153.json